aviador You're here:

KSUE Decoded Metar

STURGEON BAY in WI, USA
Report Time2017-12-16 10:56:00
UTC Time2017-12-16 11:06:56
Flight Rules vfr VFR
Wind060° at 03 kt
W.Decomp.*RWY 10: 2.4 kt HW 1.8 kt LCW
RWY 02: 2.2 kt HW 2.0 kt RCW
W.Rank060° ranks 26
Current wind is below 060° avg. (6.1)
Visibility9999 m
Phenomena:Light Snow
Clouds:Broken 038 Hf
Broken 060 Hf
Expected CloudBase > 2,000 ft AGL from Temp-Dew spread
Ceiling3,800 ft
Temp-8°C (ISA -22)
Dew Point-13°C (68% RH)
AAT-12.3°C
QNH1012 hPa
Density Alt-1,886 ft
Elevation725 ft
Report Wrong Elevation
Raw Report
METAR KSUE 161056Z AUTO 06003KT 10SM -SN BKN038 BKN060 M08/M13 A2988
RMK AO2 SNE20B55 SLP144 P0000 T10781128 FZRANO=

Extra information for KSUE:More info

Metar Taf Metar & Taf Last 4 Metars F.Rules Stats Wind Profile Meteogram Temp Stats Airport Information Weather charts Add Link Nearby VenuesMetar ALERT Operation Metar Decoded Social comments

AIRNAV info for KSUE